Time;durP1;ratioP1;P1;durP2;ratioP2;P2;SDS_P1;SDS_P2;PMS_P1;PMS_P2;Temp;Humidity;BMP_temperature;BMP_pressure;BME280_temperature;BME280_humidity;BME280_pressure;Samples;Min_cycle;Max_cycle;Signal;HPM_P1;HPM_P2
2022/03/26 00:00:23;;;;;;;11.23;5.70;;;12.20;43.00;;;;;;4981457;28;20121;-84
2022/03/26 00:02:50;;;;;;;10.63;5.13;;;12.10;43.10;;;;;;5015682;28;20034;-84
2022/03/26 00:05:17;;;;;;;11.00;5.38;;;12.10;43.00;;;;;;4981115;28;20389;-84
2022/03/26 00:07:43;;;;;;;11.90;5.45;;;12.10;43.10;;;;;;4990371;28;20103;-84
2022/03/26 00:10:10;;;;;;;10.45;5.15;;;12.00;43.10;;;;;;4979573;28;20365;-84
2022/03/26 00:12:36;;;;;;;11.80;5.28;;;12.00;43.20;;;;;;4983375;28;20025;-84
2022/03/26 00:15:02;;;;;;;11.90;5.43;;;11.90;43.20;;;;;;4987776;28;20030;-84
2022/03/26 00:17:28;;;;;;;10.65;5.10;;;11.90;43.40;;;;;;4982379;28;20498;-84
2022/03/26 00:19:54;;;;;;;12.52;5.22;;;11.90;43.40;;;;;;4986014;28;20022;-84
2022/03/26 00:22:20;;;;;;;11.97;5.67;;;11.90;43.50;;;;;;4966120;28;20577;-84
2022/03/26 00:24:45;;;;;;;9.25;5.22;;;11.80;43.60;;;;;;4998975;28;20312;-84
2022/03/26 00:27:11;;;;;;;9.90;4.85;;;11.80;43.60;;;;;;4977219;28;20167;-84
2022/03/26 00:29:37;;;;;;;10.33;4.63;;;11.70;43.70;;;;;;4974495;28;20088;-84
2022/03/26 00:32:04;;;;;;;8.68;4.53;;;11.70;43.70;;;;;;4997166;28;20490;-84
2022/03/26 00:34:31;;;;;;;8.47;4.23;;;11.70;43.80;;;;;;4980665;28;20026;-84
2022/03/26 00:36:57;;;;;;;8.75;4.35;;;11.60;43.80;;;;;;4977048;28;20342;-84
2022/03/26 00:39:23;;;;;;;10.15;4.88;;;11.60;44.60;;;;;;4979406;28;20117;-84
2022/03/26 00:41:49;;;;;;;10.90;4.95;;;11.50;44.00;;;;;;4999385;28;20030;-84
2022/03/26 00:44:16;;;;;;;10.33;4.73;;;11.50;44.00;;;;;;4991535;28;20157;-84
2022/03/26 00:46:45;;;;;;;8.98;4.90;;;11.50;44.30;;;;;;4978853;28;20022;-84
2022/03/26 00:49:11;;;;;;;9.45;4.47;;;11.50;44.30;;;;;;5012310;28;20262;-84
2022/03/26 00:51:37;;;;;;;9.87;4.90;;;11.40;44.30;;;;;;4966546;28;20125;-84
2022/03/26 00:54:03;;;;;;;9.23;4.93;;;11.40;44.50;;;;;;4980694;28;20557;-84
2022/03/26 00:56:28;;;;;;;8.60;4.82;;;11.30;44.50;;;;;;5013175;28;20026;-84
2022/03/26 00:58:54;;;;;;;10.03;4.70;;;11.30;44.60;;;;;;5011354;28;20061;-84
2022/03/26 01:01:20;;;;;;;8.48;4.45;;;11.30;44.70;;;;;;4971092;28;20178;-84
2022/03/26 01:03:47;;;;;;;8.73;4.60;;;11.30;44.80;;;;;;4998826;28;20164;-84
2022/03/26 01:06:14;;;;;;;9.13;4.93;;;11.20;44.90;;;;;;5011390;28;20282;-84
2022/03/26 01:08:39;;;;;;;9.50;4.70;;;11.20;45.10;;;;;;4985020;28;20398;-84
2022/03/26 01:11:05;;;;;;;12.17;5.30;;;11.10;45.00;;;;;;4987318;28;20029;-84
2022/03/26 01:13:32;;;;;;;8.57;4.90;;;11.10;45.10;;;;;;4982165;28;20029;-84
2022/03/26 01:15:57;;;;;;;8.90;4.70;;;11.10;45.10;;;;;;4990445;28;20029;-84
2022/03/26 01:18:23;;;;;;;10.35;4.63;;;11.10;45.30;;;;;;5006421;28;20592;-84
2022/03/26 01:20:49;;;;;;;8.50;4.35;;;11.00;45.40;;;;;;5014186;28;20144;-84
2022/03/26 01:23:19;;;;;;;8.73;4.40;;;11.00;45.40;;;;;;4981834;28;20356;-84
2022/03/26 01:25:45;;;;;;;8.80;4.45;;;11.00;45.50;;;;;;5016383;28;20033;-84
2022/03/26 01:28:10;;;;;;;8.63;4.40;;;10.90;46.20;;;;;;4967187;28;20022;-84
2022/03/26 01:30:36;;;;;;;9.63;4.80;;;10.90;45.60;;;;;;4998682;28;20032;-84
2022/03/26 01:33:02;;;;;;;9.23;4.70;;;10.90;45.60;;;;;;5000831;28;20121;-84
2022/03/26 01:35:28;;;;;;;7.80;3.97;;;10.80;45.70;;;;;;4997687;28;20117;-84
2022/03/26 01:37:53;;;;;;;9.20;4.70;;;10.80;46.50;;;;;;4975538;28;20022;-84
2022/03/26 01:40:19;;;;;;;8.30;4.53;;;10.80;45.90;;;;;;4985867;28;20095;-84
2022/03/26 01:42:45;;;;;;;9.70;4.45;;;10.80;45.90;;;;;;4989464;28;20026;-84
2022/03/26 01:45:14;;;;;;;10.73;5.13;;;10.70;46.00;;;;;;4977837;28;20659;-84
2022/03/26 01:47:40;;;;;;;8.75;4.68;;;10.70;46.40;;;;;;4970720;28;20081;-84
2022/03/26 01:50:06;;;;;;;9.57;4.63;;;10.70;46.10;;;;;;4996164;28;20033;-84
2022/03/26 01:52:33;;;;;;;8.73;4.32;;;10.70;46.10;;;;;;4998079;28;20109;-84
2022/03/26 01:54:59;;;;;;;11.30;4.70;;;10.60;46.20;;;;;;4982976;28;20045;-84
2022/03/26 01:57:25;;;;;;;9.87;4.47;;;10.60;46.30;;;;;;4981029;28;20084;-84
2022/03/26 01:59:52;;;;;;;9.20;4.43;;;10.60;46.30;;;;;;4969623;28;20022;-84
2022/03/26 02:02:18;;;;;;;8.30;4.13;;;10.50;46.50;;;;;;5011495;28;20313;-84
2022/03/26 02:04:43;;;;;;;8.73;4.60;;;10.50;46.50;;;;;;4965043;28;20156;-84
2022/03/26 02:07:09;;;;;;;9.63;4.60;;;10.40;46.40;;;;;;4980253;28;20678;-84
2022/03/26 02:09:37;;;;;;;7.15;4.13;;;10.40;46.40;;;;;;4998350;28;20034;-84
2022/03/26 02:12:22;;;;;;;9.30;4.47;;;10.40;46.50;;;;;;4996376;28;20117;-84
2022/03/26 02:14:49;;;;;;;8.10;4.20;;;10.30;46.80;;;;;;5006261;28;20120;-84
2022/03/26 02:17:14;;;;;;;9.20;4.13;;;10.30;46.70;;;;;;4994515;28;20203;-84
2022/03/26 02:19:40;;;;;;;8.07;4.00;;;10.20;46.80;;;;;;4986986;28;20022;-84
2022/03/26 02:22:06;;;;;;;8.83;4.00;;;10.20;46.90;;;;;;4977942;28;20066;-84
2022/03/26 02:24:31;;;;;;;7.27;4.40;;;10.10;47.00;;;;;;4997798;28;20395;-84
2022/03/26 02:26:57;;;;;;;9.32;4.47;;;10.10;47.00;;;;;;4967371;28;20054;-84
2022/03/26 02:29:22;;;;;;;8.50;4.37;;;10.10;47.10;;;;;;4996208;28;20021;-84
2022/03/26 02:31:48;;;;;;;9.95;4.63;;;10.10;47.20;;;;;;4984931;28;20030;-84
2022/03/26 02:34:14;;;;;;;8.13;4.27;;;10.00;47.20;;;;;;4972984;28;20318;-84
2022/03/26 02:36:39;;;;;;;10.43;4.75;;;10.00;47.30;;;;;;4985441;28;20040;-84
2022/03/26 02:39:06;;;;;;;8.87;4.27;;;9.90;47.30;;;;;;4999712;28;20036;-84
2022/03/26 02:41:34;;;;;;;7.90;4.32;;;9.90;47.40;;;;;;4987092;28;20391;-85
2022/03/26 02:44:00;;;;;;;9.57;4.05;;;9.90;47.50;;;;;;5003877;28;20066;-84
2022/03/26 02:46:26;;;;;;;8.45;4.38;;;9.80;47.50;;;;;;4975706;28;20285;-84
2022/03/26 02:48:51;;;;;;;8.60;4.40;;;9.80;47.70;;;;;;5018646;28;20026;-84
2022/03/26 02:51:17;;;;;;;10.77;5.10;;;9.80;47.70;;;;;;4991997;28;20350;-84
2022/03/26 02:53:43;;;;;;;10.30;4.60;;;9.80;47.90;;;;;;5017531;28;20280;-84
2022/03/26 02:56:09;;;;;;;8.07;4.50;;;9.80;47.90;;;;;;4966978;28;20164;-84
2022/03/26 02:58:35;;;;;;;9.10;4.67;;;9.70;48.00;;;;;;5001263;28;20018;-84
2022/03/26 03:01:00;;;;;;;9.40;4.50;;;9.70;48.00;;;;;;4975210;28;20450;-84
2022/03/26 03:03:26;;;;;;;8.80;4.37;;;9.70;48.20;;;;;;4981114;28;20025;-84
2022/03/26 03:05:52;;;;;;;8.67;4.33;;;9.70;48.30;;;;;;4985777;28;20285;-84
2022/03/26 03:08:18;;;;;;;9.43;5.07;;;9.70;48.30;;;;;;4995885;28;20065;-84
2022/03/26 03:10:44;;;;;;;9.90;4.37;;;9.70;48.40;;;;;;5017659;28;20073;-84
2022/03/26 03:13:11;;;;;;;9.35;4.88;;;9.60;48.40;;;;;;4999521;28;20441;-84
2022/03/26 03:15:37;;;;;;;9.80;5.13;;;9.60;48.40;;;;;;4978923;28;20030;-84
2022/03/26 03:18:03;;;;;;;8.90;4.20;;;9.60;48.50;;;;;;4989281;28;20034;-84
2022/03/26 03:20:32;;;;;;;9.13;4.57;;;9.60;48.60;;;;;;4990974;28;20034;-84
2022/03/26 03:22:59;;;;;;;9.13;4.40;;;9.60;48.70;;;;;;4998541;28;20465;-84
2022/03/26 03:25:26;;;;;;;10.77;4.53;;;9.60;48.70;;;;;;4998648;28;20038;-84
2022/03/26 03:27:52;;;;;;;8.35;4.25;;;9.50;48.80;;;;;;4966144;28;20034;-84
2022/03/26 03:30:18;;;;;;;8.65;4.57;;;9.50;48.80;;;;;;4998758;28;20297;-84
2022/03/26 03:32:44;;;;;;;8.43;4.47;;;9.50;49.60;;;;;;5006455;28;20068;-84
2022/03/26 03:35:10;;;;;;;7.57;4.43;;;9.50;49.10;;;;;;4994100;28;20244;-84
2022/03/26 03:37:40;;;;;;;9.93;4.45;;;9.40;49.00;;;;;;4990531;28;20030;-84
2022/03/26 03:40:07;;;;;;;9.27;4.57;;;9.50;49.60;;;;;;5013509;28;20029;-84
2022/03/26 03:42:33;;;;;;;9.73;5.03;;;9.40;49.20;;;;;;4985043;28;20052;-84
2022/03/26 03:44:59;;;;;;;8.00;4.35;;;9.40;49.30;;;;;;4981713;28;20033;-84
2022/03/26 03:47:24;;;;;;;10.82;5.18;;;9.40;49.30;;;;;;4988455;28;20707;-84
2022/03/26 03:49:51;;;;;;;8.40;4.47;;;9.40;49.20;;;;;;4994978;28;20124;-84
2022/03/26 03:52:17;;;;;;;9.00;4.22;;;9.40;49.50;;;;;;4997185;28;20345;-84
2022/03/26 03:54:42;;;;;;;10.25;4.47;;;9.30;49.60;;;;;;5000394;28;20362;-84
2022/03/26 03:57:08;;;;;;;8.17;4.07;;;9.30;49.50;;;;;;5012710;28;20326;-84
2022/03/26 03:59:34;;;;;;;7.73;4.00;;;9.30;49.60;;;;;;5001373;28;20295;-84
2022/03/26 04:01:59;;;;;;;10.63;4.60;;;9.30;49.70;;;;;;4993881;28;20091;-84
2022/03/26 04:04:25;;;;;;;7.95;4.35;;;9.20;49.70;;;;;;4991184;28;20295;-84
2022/03/26 04:06:51;;;;;;;8.03;4.17;;;9.20;50.40;;;;;;5015604;28;20485;-84
2022/03/26 04:09:16;;;;;;;8.30;4.23;;;9.20;49.70;;;;;;4972285;28;20938;-83
2022/03/26 04:11:42;;;;;;;9.95;4.50;;;9.20;49.80;;;;;;4999815;28;20319;-84
2022/03/26 04:14:08;;;;;;;8.77;4.57;;;9.10;49.80;;;;;;4981896;28;20204;-84
2022/03/26 04:16:33;;;;;;;8.73;4.38;;;9.10;49.80;;;;;;4983473;28;20030;-84
2022/03/26 04:18:59;;;;;;;10.30;5.03;;;9.10;50.00;;;;;;4989814;28;20022;-84
2022/03/26 04:21:25;;;;;;;8.88;4.60;;;9.10;50.10;;;;;;4998586;28;20219;-84
2022/03/26 04:23:51;;;;;;;8.83;4.23;;;9.10;50.10;;;;;;4987202;28;20034;-84
2022/03/26 04:26:17;;;;;;;9.15;4.47;;;9.10;50.20;;;;;;4980113;28;20453;-84
2022/03/26 04:28:43;;;;;;;8.80;4.72;;;9.00;50.20;;;;;;4999645;28;20089;-84
2022/03/26 04:31:09;;;;;;;9.87;4.30;;;9.00;50.20;;;;;;4982091;28;20259;-84
2022/03/26 04:33:35;;;;;;;8.18;4.35;;;9.00;50.50;;;;;;4999722;28;20025;-84
2022/03/26 04:36:01;;;;;;;8.95;4.20;;;9.00;50.50;;;;;;4972526;28;20398;-84
2022/03/26 04:38:26;;;;;;;8.48;4.30;;;8.90;50.40;;;;;;4998513;28;20026;-84
2022/03/26 04:40:52;;;;;;;9.13;4.70;;;8.90;50.50;;;;;;4989408;28;20269;-84
2022/03/26 04:43:18;;;;;;;9.48;4.32;;;8.90;50.60;;;;;;5013690;28;20140;-84
2022/03/26 04:45:44;;;;;;;8.03;4.13;;;8.90;50.60;;;;;;4974621;28;20033;-85
2022/03/26 04:48:10;;;;;;;7.80;4.30;;;8.80;50.80;;;;;;5001395;28;20346;-84
2022/03/26 04:50:36;;;;;;;8.70;4.65;;;8.80;51.00;;;;;;4997738;28;20055;-84
2022/03/26 04:53:03;;;;;;;9.37;4.47;;;8.80;51.10;;;;;;4999949;28;20470;-84
2022/03/26 04:55:29;;;;;;;9.07;4.10;;;8.70;51.00;;;;;;4975782;28;20034;-84
2022/03/26 04:57:55;;;;;;;8.52;4.53;;;8.70;51.00;;;;;;4997334;28;20052;-84
2022/03/26 05:00:22;;;;;;;9.50;4.30;;;8.70;51.00;;;;;;4996446;28;20056;-84
2022/03/26 05:02:48;;;;;;;9.50;4.67;;;8.70;51.10;;;;;;5001908;28;20482;-84
2022/03/26 05:05:15;;;;;;;9.75;4.60;;;8.60;51.00;;;;;;5003091;28;20235;-84
2022/03/26 05:07:47;;;;;;;10.27;4.38;;;8.60;51.10;;;;;;5001455;28;20026;-84
2022/03/26 05:10:17;;;;;;;9.82;4.70;;;8.60;51.20;;;;;;4972747;28;20109;-84
2022/03/26 05:12:44;;;;;;;9.50;4.45;;;8.60;51.60;;;;;;4999293;28;20504;-84
2022/03/26 05:15:12;;;;;;;9.53;4.47;;;8.50;51.30;;;;;;5011039;28;20528;-84
2022/03/26 05:17:38;;;;;;;8.38;4.05;;;8.50;51.40;;;;;;4986258;28;20025;-84
2022/03/26 05:20:08;;;;;;;7.78;4.35;;;8.50;51.40;;;;;;4988584;28;20021;-84
2022/03/26 05:22:34;;;;;;;9.68;4.63;;;8.50;51.90;;;;;;4992413;28;20474;-84
2022/03/26 05:25:00;;;;;;;8.90;4.35;;;8.40;51.50;;;;;;4996074;28;20034;-84
2022/03/26 05:27:26;;;;;;;9.90;4.40;;;8.40;51.60;;;;;;4982403;28;20196;-84
2022/03/26 05:29:52;;;;;;;8.80;4.38;;;8.40;51.60;;;;;;5010802;28;20034;-84
2022/03/26 05:32:19;;;;;;;9.32;4.45;;;8.30;51.60;;;;;;4993200;28;20037;-84
2022/03/26 05:34:45;;;;;;;8.40;4.43;;;8.30;51.80;;;;;;4995547;28;20776;-84
2022/03/26 05:37:11;;;;;;;11.30;4.47;;;8.30;51.90;;;;;;4994554;28;20171;-84
2022/03/26 05:39:38;;;;;;;8.77;4.60;;;8.30;52.00;;;;;;4998700;28;20028;-84
2022/03/26 05:42:04;;;;;;;9.57;4.80;;;8.30;52.00;;;;;;4983680;28;20026;-84
2022/03/26 05:44:30;;;;;;;9.30;4.57;;;8.30;52.30;;;;;;5011231;28;20145;-84
2022/03/26 05:46:56;;;;;;;9.37;4.67;;;8.20;52.20;;;;;;4963461;28;20037;-84
2022/03/26 05:49:21;;;;;;;9.82;4.65;;;8.20;52.30;;;;;;4993417;28;20238;-84
2022/03/26 05:51:47;;;;;;;11.77;4.80;;;8.20;52.30;;;;;;4998712;28;20064;-84
2022/03/26 05:54:14;;;;;;;9.27;4.45;;;8.30;52.40;;;;;;4992123;28;20346;-84
2022/03/26 05:56:40;;;;;;;8.27;4.30;;;8.30;52.60;;;;;;5001884;28;20050;-84
2022/03/26 05:59:09;;;;;;;9.77;4.20;;;8.30;52.60;;;;;;5006862;28;20056;-84
2022/03/26 06:01:35;;;;;;;11.18;5.03;;;8.20;52.70;;;;;;4944573;28;20663;-84
2022/03/26 06:04:02;;;;;;;8.68;4.50;;;8.30;53.70;;;;;;5003788;28;20540;-84
2022/03/26 06:06:27;;;;;;;9.05;4.10;;;8.30;53.00;;;;;;4979089;28;20116;-84
2022/03/26 06:08:53;;;;;;;9.67;4.50;;;8.30;53.10;;;;;;4999513;28;20494;-84
2022/03/26 06:11:19;;;;;;;9.32;4.63;;;8.30;53.10;;;;;;5003399;28;20026;-84
2022/03/26 06:13:44;;;;;;;10.00;4.80;;;8.40;53.20;;;;;;5003163;28;20030;-84
2022/03/26 06:16:10;;;;;;;9.33;4.47;;;8.40;53.20;;;;;;5008832;28;20295;-84
2022/03/26 06:18:36;;;;;;;9.50;4.40;;;8.50;53.30;;;;;;4960581;28;20533;-84
2022/03/26 06:21:05;;;;;;;9.98;5.03;;;8.50;53.30;;;;;;4988347;28;20456;-84
2022/03/26 06:23:31;;;;;;;9.65;4.93;;;8.50;53.40;;;;;;4980517;28;20037;-84
2022/03/26 06:25:57;;;;;;;10.13;5.40;;;8.50;53.40;;;;;;5004600;28;20054;-84
2022/03/26 06:28:22;;;;;;;9.63;4.50;;;8.60;53.50;;;;;;5000523;28;20040;-84
2022/03/26 06:30:49;;;;;;;9.90;4.78;;;8.70;53.60;;;;;;4993468;28;20145;-84
2022/03/26 06:33:16;;;;;;;8.93;4.50;;;8.70;53.70;;;;;;4996700;28;20104;-84
2022/03/26 06:35:46;;;;;;;8.85;4.97;;;8.80;53.90;;;;;;5001472;28;20109;-84
2022/03/26 06:38:12;;;;;;;13.07;5.30;;;8.90;54.20;;;;;;4995906;28;20064;-84
2022/03/26 06:40:40;;;;;;;10.10;4.85;;;9.00;53.90;;;;;;4981624;28;20448;-84
2022/03/26 06:43:07;;;;;;;9.77;5.05;;;9.10;54.20;;;;;;5002534;28;20054;-84
2022/03/26 06:45:34;;;;;;;9.13;4.53;;;9.20;54.20;;;;;;5010721;28;20057;-84
2022/03/26 06:48:00;;;;;;;9.98;5.30;;;9.30;54.30;;;;;;4995007;28;20030;-84
2022/03/26 06:50:25;;;;;;;10.82;4.88;;;9.50;54.50;;;;;;4976560;28;20033;-84
2022/03/26 06:52:51;;;;;;;9.40;4.95;;;9.60;54.60;;;;;;4993956;28;20377;-84
2022/03/26 06:55:17;;;;;;;9.93;5.17;;;9.80;54.70;;;;;;4975018;28;20045;-84
2022/03/26 06:57:42;;;;;;;9.70;4.82;;;10.00;54.60;;;;;;4986930;28;20569;-84
2022/03/26 07:00:10;;;;;;;11.07;5.53;;;10.20;54.50;;;;;;4994788;28;20053;-84
2022/03/26 07:02:36;;;;;;;11.02;5.15;;;10.30;54.50;;;;;;4980651;28;20022;-84
2022/03/26 07:05:05;;;;;;;10.90;5.33;;;10.50;54.30;;;;;;4985463;28;20037;-84
2022/03/26 07:07:31;;;;;;;13.23;5.45;;;10.60;54.50;;;;;;4994686;28;20049;-84
2022/03/26 07:09:58;;;;;;;11.60;5.65;;;10.80;54.50;;;;;;4985509;28;20129;-84
2022/03/26 07:12:24;;;;;;;12.93;5.55;;;11.00;54.80;;;;;;4998143;28;20029;-84
2022/03/26 07:14:49;;;;;;;10.10;5.43;;;11.10;54.90;;;;;;4990519;28;20190;-84
2022/03/26 07:17:16;;;;;;;10.50;5.55;;;11.40;55.10;;;;;;4983042;28;20029;-84
2022/03/26 07:19:42;;;;;;;10.80;5.17;;;11.60;55.40;;;;;;5001834;28;20111;-84
2022/03/26 07:22:08;;;;;;;9.95;5.68;;;11.90;55.70;;;;;;4996041;28;20120;-84
2022/03/26 07:24:33;;;;;;;10.65;5.75;;;12.30;55.90;;;;;;4986495;28;20033;-84
2022/03/26 07:26:59;;;;;;;14.00;6.00;;;12.60;56.00;;;;;;5016360;28;20046;-83
2022/03/26 07:29:25;;;;;;;11.00;5.85;;;13.00;56.00;;;;;;4982841;28;20034;-83
2022/03/26 07:31:50;;;;;;;11.67;6.33;;;13.30;55.50;;;;;;4992596;28;20065;-84
2022/03/26 07:34:17;;;;;;;10.45;6.35;;;13.60;55.30;;;;;;5009463;28;20112;-84
2022/03/26 07:36:43;;;;;;;15.35;6.70;;;14.00;55.20;;;;;;4999536;28;20705;-84
2022/03/26 07:39:09;;;;;;;15.20;6.97;;;14.30;55.20;;;;;;4997209;28;20038;-84
2022/03/26 07:41:34;;;;;;;12.55;6.93;;;14.70;55.30;;;;;;4986693;28;20200;-83
2022/03/26 07:44:00;;;;;;;15.52;7.20;;;15.10;55.20;;;;;;4989265;28;20032;-83
2022/03/26 07:46:26;;;;;;;16.60;7.60;;;15.50;55.20;;;;;;5000615;28;20033;-83
2022/03/26 07:48:51;;;;;;;13.23;6.95;;;15.90;55.10;;;;;;4990766;28;20034;-83
2022/03/26 07:51:17;;;;;;;14.77;7.37;;;16.30;54.90;;;;;;4960645;28;20494;-83
2022/03/26 07:53:43;;;;;;;14.20;7.53;;;16.70;54.50;;;;;;4983857;28;20147;-84
2022/03/26 07:56:09;;;;;;;16.00;7.93;;;17.10;54.00;;;;;;4961545;28;20121;-83
2022/03/26 07:58:34;;;;;;;15.98;8.23;;;17.50;53.50;;;;;;4996869;28;20610;-83
2022/03/26 08:01:01;;;;;;;16.63;8.13;;;17.90;53.10;;;;;;4981483;28;20052;-83
2022/03/26 08:03:26;;;;;;;15.10;7.68;;;18.20;52.60;;;;;;4985873;28;20056;-84
2022/03/26 08:05:52;;;;;;;13.40;7.80;;;18.60;52.30;;;;;;4994681;28;20287;-83
2022/03/26 08:08:17;;;;;;;14.20;7.73;;;18.90;52.10;;;;;;4987886;28;20038;-83
2022/03/26 08:10:43;;;;;;;15.90;8.03;;;19.30;51.80;;;;;;4978135;28;21260;-83
2022/03/26 08:13:09;;;;;;;14.70;7.80;;;19.60;51.40;;;;;;5010922;28;20281;-84
2022/03/26 08:15:34;;;;;;;12.73;7.75;;;19.90;50.60;;;;;;4981363;28;20022;-84
2022/03/26 08:18:02;;;;;;;15.60;8.33;;;20.20;49.80;;;;;;4987867;28;20038;-83
2022/03/26 08:20:31;;;;;;;15.70;8.63;;;20.50;49.50;;;;;;4975039;28;20252;-83
2022/03/26 08:22:57;;;;;;;14.68;8.35;;;20.70;49.10;;;;;;5008563;28;20030;-83
2022/03/26 08:28:11;;;;;;;16.35;8.52;;;21.30;48.60;;;;;;4986214;28;20042;-83
2022/03/26 08:30:37;;;;;;;17.20;9.10;;;21.60;47.70;;;;;;4992939;28;20065;-83
2022/03/26 08:33:04;;;;;;;12.32;7.93;;;21.90;47.90;;;;;;4985890;28;20034;-83
2022/03/26 08:35:34;;;;;;;13.55;8.60;;;22.20;47.60;;;;;;4990844;28;20524;-83
2022/03/26 08:38:00;;;;;;;16.47;9.83;;;22.50;46.20;;;;;;4981002;28;20040;-83
2022/03/26 08:40:26;;;;;;;16.83;9.70;;;22.70;46.10;;;;;;4989825;28;20108;-83
2022/03/26 08:42:52;;;;;;;13.32;8.52;;;22.90;45.40;;;;;;4973241;28;20557;-83
2022/03/26 08:45:19;;;;;;;14.67;8.50;;;23.20;45.00;;;;;;4997118;28;20170;-83
2022/03/26 08:47:45;;;;;;;13.68;8.23;;;23.30;44.70;;;;;;4970221;28;20207;-83
2022/03/26 08:50:11;;;;;;;14.73;8.77;;;23.60;44.70;;;;;;4970178;28;20210;-83
2022/03/26 08:52:37;;;;;;;15.32;8.90;;;23.80;44.40;;;;;;4981699;28;20026;-83
2022/03/26 08:55:04;;;;;;;14.77;8.90;;;24.00;44.10;;;;;;4999975;28;20042;-83
2022/03/26 08:57:30;;;;;;;14.82;9.27;;;24.30;43.90;;;;;;5013397;28;20038;-83
2022/03/26 08:59:56;;;;;;;15.45;9.18;;;24.60;43.30;;;;;;4964478;28;20306;-83
2022/03/26 09:02:22;;;;;;;13.93;9.35;;;24.80;42.90;;;;;;5000144;28;20509;-83
2022/03/26 09:04:48;;;;;;;14.87;9.33;;;25.00;42.50;;;;;;4981781;28;20066;-83
2022/03/26 09:07:13;;;;;;;13.15;8.60;;;25.30;42.10;;;;;;4998043;28;20029;-79
2022/03/26 09:09:39;;;;;;;15.88;9.38;;;25.50;41.60;;;;;;4982723;28;20030;-79
2022/03/26 09:12:05;;;;;;;15.17;9.23;;;25.80;41.10;;;;;;4985182;28;20226;-79
2022/03/26 09:14:31;;;;;;;14.10;8.65;;;25.90;40.40;;;;;;5005421;28;20037;-80
2022/03/26 09:16:57;;;;;;;15.80;9.43;;;26.10;40.00;;;;;;4999154;28;20265;-79
2022/03/26 09:19:22;;;;;;;14.70;9.37;;;26.30;39.70;;;;;;4987750;28;20365;-79
2022/03/26 09:21:49;;;;;;;13.93;8.60;;;26.40;39.70;;;;;;5001021;28;20072;-79
2022/03/26 09:24:16;;;;;;;13.97;8.70;;;26.60;39.40;;;;;;4966326;28;20378;-80
2022/03/26 09:26:42;;;;;;;13.30;8.73;;;26.90;39.20;;;;;;4987508;28;20063;-86
2022/03/26 09:29:08;;;;;;;14.13;9.27;;;27.10;39.10;;;;;;4982176;28;20298;-86
2022/03/26 09:31:33;;;;;;;11.65;8.52;;;27.40;39.60;;;;;;4990265;28;20537;-82
2022/03/26 09:33:59;;;;;;;17.00;9.47;;;27.60;38.40;;;;;;4984678;28;20594;-82
2022/03/26 09:36:25;;;;;;;13.10;8.68;;;27.80;37.70;;;;;;4983879;28;20022;-87
2022/03/26 09:38:51;;;;;;;13.37;8.40;;;28.00;37.30;;;;;;4994867;28;20025;-86
2022/03/26 09:41:16;;;;;;;13.85;8.68;;;28.20;37.10;;;;;;4982223;28;20041;-87
2022/03/26 09:43:43;;;;;;;15.20;9.67;;;28.40;36.70;;;;;;4995071;28;20041;-87
2022/03/26 09:46:10;;;;;;;14.57;9.27;;;28.60;35.90;;;;;;4952073;28;20240;-87
2022/03/26 09:48:39;;;;;;;14.00;9.57;;;28.80;35.60;;;;;;4998048;28;20487;-86
2022/03/26 09:51:05;;;;;;;13.50;9.35;;;29.00;34.90;;;;;;4994093;28;20030;-87
2022/03/26 09:53:31;;;;;;;14.50;8.93;;;29.10;35.10;;;;;;4981370;28;20569;-86
2022/03/26 09:55:57;;;;;;;13.27;8.98;;;29.30;34.90;;;;;;4962053;28;20033;-86
2022/03/26 09:58:23;;;;;;;14.10;9.98;;;29.50;34.30;;;;;;4960919;28;20346;-86
2022/03/26 10:00:49;;;;;;;16.27;9.27;;;29.60;34.20;;;;;;4987850;28;20044;-87
2022/03/26 10:03:16;;;;;;;16.73;9.75;;;29.70;33.40;;;;;;4999180;28;20030;-87
2022/03/26 10:05:42;;;;;;;16.23;9.80;;;29.80;33.00;;;;;;4974484;28;20044;-87
2022/03/26 10:08:19;;;;;;;15.50;9.73;;;29.90;32.80;;;;;;4996318;28;20030;-87
2022/03/26 10:10:46;;;;;;;13.60;9.30;;;30.00;31.20;;;;;;4998603;28;20397;-87
2022/03/26 10:13:32;;;;;;;15.35;9.88;;;30.20;32.40;;;;;;4965929;28;20023;-87
2022/03/26 10:16:06;;;;;;;12.45;8.82;;;30.30;32.00;;;;;;4994677;28;20077;-86
2022/03/26 10:18:39;;;;;;;15.98;10.32;;;30.50;31.10;;;;;;4985475;28;20195;-87
2022/03/26 10:21:23;;;;;;;16.20;9.67;;;30.60;30.00;;;;;;4990721;28;20037;-87
2022/03/26 10:23:53;;;;;;;16.00;10.23;;;30.60;29.80;;;;;;4983127;28;20118;-87
2022/03/26 10:26:21;;;;;;;15.85;10.82;;;30.60;29.90;;;;;;4960613;28;20061;-86
2022/03/26 10:28:53;;;;;;;16.10;10.85;;;30.60;29.90;;;;;;4975231;28;20071;-87
2022/03/26 10:34:08;;;;;;;13.60;9.20;;;30.60;29.70;;;;;;4998065;28;20029;-87
2022/03/26 10:36:35;;;;;;;16.58;10.02;;;30.70;29.80;;;;;;4980908;28;20038;-87
2022/03/26 10:39:00;;;;;;;17.65;10.32;;;30.80;29.70;;;;;;4966396;28;20438;-87
2022/03/26 10:41:30;;;;;;;16.63;9.93;;;30.90;29.60;;;;;;4994003;28;20178;-86
2022/03/26 10:44:07;;;;;;;15.05;9.93;;;31.00;29.40;;;;;;4952531;28;20176;-87
2022/03/26 10:46:57;;;;;;;16.42;10.40;;;31.10;28.50;;;;;;4979414;28;20744;-85
2022/03/26 10:49:25;;;;;;;14.15;9.88;;;31.20;28.40;;;;;;4953446;28;20038;-87
2022/03/26 10:51:51;;;;;;;15.98;10.13;;;31.20;28.70;;;;;;4993782;28;20524;-87
2022/03/26 10:54:16;;;;;;;14.87;10.50;;;31.30;28.70;;;;;;4999611;28;20212;-85
2022/03/26 10:56:42;;;;;;;14.85;9.63;;;31.40;28.20;;;;;;4967209;28;20034;-86
2022/03/26 10:59:08;;;;;;;14.97;9.73;;;31.50;27.80;;;;;;4958055;28;20113;-87
2022/03/26 11:01:35;;;;;;;15.52;9.25;;;31.40;27.60;;;;;;4970621;28;20033;-87
2022/03/26 11:04:02;;;;;;;14.68;10.32;;;31.40;27.20;;;;;;4987068;28;20026;-86
2022/03/26 11:06:28;;;;;;;14.50;9.45;;;31.40;26.90;;;;;;4969559;28;20037;-86
2022/03/26 11:09:01;;;;;;;15.20;9.20;;;31.30;26.70;;;;;;4961011;28;20141;-86
2022/03/26 11:11:28;;;;;;;14.80;8.90;;;31.20;26.50;;;;;;4984245;28;20040;-86
2022/03/26 11:13:59;;;;;;;14.02;8.07;;;31.20;26.90;;;;;;4964133;28;20029;-86
2022/03/26 11:16:39;;;;;;;12.50;8.95;;;31.20;27.00;;;;;;5010785;28;20571;-86
2022/03/26 11:19:17;;;;;;;12.90;8.27;;;31.20;26.50;;;;;;4988722;28;20048;-86
2022/03/26 11:21:51;;;;;;;12.95;9.15;;;31.20;26.50;;;;;;4997612;28;20035;-86
2022/03/26 11:24:52;;;;;;;14.17;9.20;;;31.20;26.30;;;;;;4970106;28;20290;-86
2022/03/26 11:27:39;;;;;;;15.43;9.60;;;31.20;26.20;;;;;;5005536;28;20049;-87
2022/03/26 11:30:38;;;;;;;14.98;9.15;;;31.20;26.10;;;;;;4980585;28;20133;-87
2022/03/26 11:33:11;;;;;;;12.43;8.20;;;31.20;26.00;;;;;;4995297;28;20430;-87
2022/03/26 11:35:58;;;;;;;13.13;8.82;;;31.20;26.30;;;;;;4986894;28;20466;-87
2022/03/26 11:38:29;;;;;;;14.53;9.10;;;31.40;25.70;;;;;;4971946;28;20442;-87
2022/03/26 11:40:57;;;;;;;14.52;9.88;;;31.50;26.30;;;;;;5001343;28;20027;-88
2022/03/26 11:43:44;;;;;;;13.38;8.73;;;31.60;26.80;;;;;;5010502;28;20030;-87
2022/03/26 11:52:23;;;;;;;11.70;7.50;;;31.80;25.50;;;;;;4981439;28;20080;-87
2022/03/26 11:54:54;;;;;;;14.23;8.13;;;31.90;25.50;;;;;;4975499;28;20034;-87
2022/03/26 11:57:22;;;;;;;14.52;9.07;;;32.10;25.60;;;;;;4977956;28;20026;-87
2022/03/26 11:59:49;;;;;;;13.93;8.57;;;32.10;25.10;;;;;;4992949;28;20022;-86
2022/03/26 12:02:15;;;;;;;12.70;8.38;;;32.10;24.70;;;;;;4961770;28;20049;-86
2022/03/26 12:04:57;;;;;;;13.53;8.87;;;32.00;24.60;;;;;;4996548;28;20326;-86
2022/03/26 12:07:28;;;;;;;12.60;7.93;;;31.90;24.10;;;;;;4988148;28;20117;-87
2022/03/26 12:10:11;;;;;;;11.88;7.38;;;31.80;24.20;;;;;;4989987;28;20022;-87
2022/03/26 12:12:50;;;;;;;11.17;7.53;;;31.70;24.20;;;;;;4987638;28;20034;-87
2022/03/26 12:15:16;;;;;;;11.88;7.28;;;31.70;23.90;;;;;;4981306;28;20080;-87
2022/03/26 12:17:46;;;;;;;11.47;6.50;;;31.70;24.50;;;;;;4983848;28;20113;-87
2022/03/26 12:20:18;;;;;;;13.43;7.87;;;31.80;24.30;;;;;;4995853;28;20295;-87
2022/03/26 12:22:44;;;;;;;9.88;6.25;;;31.80;24.00;;;;;;4988586;28;20026;-87
2022/03/26 12:25:11;;;;;;;13.90;7.63;;;31.90;24.40;;;;;;4999178;28;20187;-87
2022/03/26 12:27:40;;;;;;;11.13;5.85;;;32.00;24.10;;;;;;5017453;28;20034;-87
2022/03/26 12:30:07;;;;;;;8.20;5.53;;;32.00;24.30;;;;;;5006699;28;20399;-86
2022/03/26 12:32:34;;;;;;;9.95;6.07;;;31.90;24.20;;;;;;4965358;28;20034;-87
2022/03/26 12:35:04;;;;;;;8.70;6.28;;;32.00;24.40;;;;;;5003719;28;20033;-86
2022/03/26 12:37:30;;;;;;;9.00;5.55;;;31.90;23.80;;;;;;4976392;28;20065;-86
2022/03/26 12:39:56;;;;;;;9.38;5.78;;;31.90;24.30;;;;;;4997647;28;20018;-87
2022/03/26 12:42:23;;;;;;;9.00;5.37;;;31.90;23.50;;;;;;4967937;28;20096;-87
2022/03/26 12:44:50;;;;;;;9.30;5.63;;;31.80;23.40;;;;;;4990887;28;20026;-86
2022/03/26 12:47:23;;;;;;;10.80;6.05;;;31.80;23.40;;;;;;4975060;28;20441;-88
2022/03/26 12:49:50;;;;;;;7.93;5.47;;;31.70;23.00;;;;;;5012626;28;20482;-86
2022/03/26 12:52:21;;;;;;;7.80;5.00;;;31.70;23.90;;;;;;4980657;28;20026;-87
2022/03/26 12:54:55;;;;;;;8.77;5.33;;;31.60;23.30;;;;;;4966185;28;20026;-87
2022/03/26 12:57:21;;;;;;;10.25;5.63;;;31.60;23.30;;;;;;4980544;28;20418;-87